sensor_id;sensor_type;location;lat;lon;timestamp;temperature;humidity
12180;DHT22;6153;51.490;6.586;2022-09-01T00:00:48;18.10;99.90
12180;DHT22;6153;51.490;6.586;2022-09-01T00:03:49;18.10;99.90
12180;DHT22;6153;51.490;6.586;2022-09-01T00:06:53;18.10;99.90
12180;DHT22;6153;51.490;6.586;2022-09-01T00:09:59;18.00;99.90
12180;DHT22;6153;51.490;6.586;2022-09-01T00:13:00;18.00;99.90
12180;DHT22;6153;51.490;6.586;2022-09-01T00:16:02;17.90;99.90
12180;DHT22;6153;51.490;6.586;2022-09-01T00:19:04;17.90;99.90
12180;DHT22;6153;51.490;6.586;2022-09-01T00:22:06;17.80;99.90
12180;DHT22;6153;51.490;6.586;2022-09-01T00:25:07;17.70;99.90
12180;DHT22;6153;51.490;6.586;2022-09-01T00:28:08;17.70;99.90
12180;DHT22;6153;51.490;6.586;2022-09-01T00:31:10;17.60;99.90
12180;DHT22;6153;51.490;6.586;2022-09-01T00:34:11;17.50;99.90
12180;DHT22;6153;51.490;6.586;2022-09-01T00:37:12;17.50;99.90
12180;DHT22;6153;51.490;6.586;2022-09-01T00:40:14;17.50;99.90
12180;DHT22;6153;51.490;6.586;2022-09-01T00:43:23;17.40;99.90
12180;DHT22;6153;51.490;6.586;2022-09-01T00:46:35;17.40;99.90
12180;DHT22;6153;51.490;6.586;2022-09-01T00:49:40;17.30;99.90
12180;DHT22;6153;51.490;6.586;2022-09-01T00:52:47;17.30;99.90
12180;DHT22;6153;51.490;6.586;2022-09-01T00:55:49;17.30;99.90
12180;DHT22;6153;51.490;6.586;2022-09-01T00:58:51;17.20;99.90
12180;DHT22;6153;51.490;6.586;2022-09-01T01:01:52;17.20;99.90
12180;DHT22;6153;51.490;6.586;2022-09-01T01:04:52;17.10;99.90
12180;DHT22;6153;51.490;6.586;2022-09-01T01:07:59;17.00;99.90
12180;DHT22;6153;51.490;6.586;2022-09-01T01:11:12;17.00;99.90
12180;DHT22;6153;51.490;6.586;2022-09-01T01:14:17;17.00;99.90
12180;DHT22;6153;51.490;6.586;2022-09-01T01:17:20;16.90;99.90
12180;DHT22;6153;51.490;6.586;2022-09-01T01:20:25;16.90;99.90
12180;DHT22;6153;51.490;6.586;2022-09-01T01:24:22;16.90;99.90
12180;DHT22;6153;51.490;6.586;2022-09-01T01:27:23;16.80;99.90
12180;DHT22;6153;51.490;6.586;2022-09-01T01:30:24;16.80;99.90
12180;DHT22;6153;51.490;6.586;2022-09-01T01:33:36;16.80;99.90
12180;DHT22;6153;51.490;6.586;2022-09-01T01:36:40;16.80;99.90
12180;DHT22;6153;51.490;6.586;2022-09-01T01:39:41;16.80;99.90
12180;DHT22;6153;51.490;6.586;2022-09-01T01:42:45;16.80;99.90
12180;DHT22;6153;51.490;6.586;2022-09-01T01:45:48;16.80;99.90
12180;DHT22;6153;51.490;6.586;2022-09-01T01:48:52;16.80;99.90
12180;DHT22;6153;51.490;6.586;2022-09-01T01:51:53;16.80;99.90
12180;DHT22;6153;51.490;6.586;2022-09-01T01:54:55;16.80;99.90
12180;DHT22;6153;51.490;6.586;2022-09-01T01:57:57;16.90;99.90
12180;DHT22;6153;51.490;6.586;2022-09-01T02:00:58;16.90;99.90
12180;DHT22;6153;51.490;6.586;2022-09-01T02:04:01;16.90;99.90
12180;DHT22;6153;51.490;6.586;2022-09-01T02:07:03;16.90;99.90
12180;DHT22;6153;51.490;6.586;2022-09-01T02:10:05;16.90;99.90
12180;DHT22;6153;51.490;6.586;2022-09-01T02:13:07;16.90;99.90
12180;DHT22;6153;51.490;6.586;2022-09-01T02:16:11;17.00;99.90
12180;DHT22;6153;51.490;6.586;2022-09-01T02:19:12;16.90;99.90
12180;DHT22;6153;51.490;6.586;2022-09-01T02:22:13;16.90;99.90
12180;DHT22;6153;51.490;6.586;2022-09-01T02:25:13;16.90;99.90
12180;DHT22;6153;51.490;6.586;2022-09-01T02:28:16;16.90;99.90
12180;DHT22;6153;51.490;6.586;2022-09-01T02:31:17;16.80;99.90
12180;DHT22;6153;51.490;6.586;2022-09-01T02:34:21;16.80;99.90
12180;DHT22;6153;51.490;6.586;2022-09-01T02:37:23;16.80;99.90
12180;DHT22;6153;51.490;6.586;2022-09-01T02:40:24;16.80;99.90
12180;DHT22;6153;51.490;6.586;2022-09-01T02:43:25;16.70;99.90
12180;DHT22;6153;51.490;6.586;2022-09-01T02:46:28;16.60;99.90
12180;DHT22;6153;51.490;6.586;2022-09-01T02:49:29;16.60;99.90
12180;DHT22;6153;51.490;6.586;2022-09-01T02:52:29;16.50;99.90
12180;DHT22;6153;51.490;6.586;2022-09-01T02:55:35;16.40;99.90
12180;DHT22;6153;51.490;6.586;2022-09-01T02:58:36;16.30;99.90
12180;DHT22;6153;51.490;6.586;2022-09-01T03:01:45;16.20;99.90
12180;DHT22;6153;51.490;6.586;2022-09-01T03:04:46;16.20;99.90
12180;DHT22;6153;51.490;6.586;2022-09-01T03:07:50;16.20;99.90
12180;DHT22;6153;51.490;6.586;2022-09-01T03:10:55;16.10;99.90
12180;DHT22;6153;51.490;6.586;2022-09-01T03:13:57;16.10;99.90
12180;DHT22;6153;51.490;6.586;2022-09-01T03:16:57;16.00;99.90
12180;DHT22;6153;51.490;6.586;2022-09-01T03:19:59;16.00;99.90
12180;DHT22;6153;51.490;6.586;2022-09-01T03:23:01;16.10;99.90
12180;DHT22;6153;51.490;6.586;2022-09-01T03:26:04;16.00;99.90
12180;DHT22;6153;51.490;6.586;2022-09-01T03:29:04;16.00;99.90
12180;DHT22;6153;51.490;6.586;2022-09-01T03:32:05;16.00;99.90
12180;DHT22;6153;51.490;6.586;2022-09-01T03:35:06;16.00;99.90
12180;DHT22;6153;51.490;6.586;2022-09-01T03:38:08;15.90;99.90
12180;DHT22;6153;51.490;6.586;2022-09-01T03:41:08;15.90;99.90
12180;DHT22;6153;51.490;6.586;2022-09-01T03:44:09;15.90;99.90
12180;DHT22;6153;51.490;6.586;2022-09-01T03:47:13;15.90;99.90
12180;DHT22;6153;51.490;6.586;2022-09-01T03:50:15;15.90;99.90
12180;DHT22;6153;51.490;6.586;2022-09-01T03:53:20;15.90;99.90
12180;DHT22;6153;51.490;6.586;2022-09-01T03:56:22;15.80;99.90
12180;DHT22;6153;51.490;6.586;2022-09-01T03:59:24;15.80;99.90
12180;DHT22;6153;51.490;6.586;2022-09-01T04:02:27;15.80;99.90
12180;DHT22;6153;51.490;6.586;2022-09-01T04:05:29;15.80;99.90
12180;DHT22;6153;51.490;6.586;2022-09-01T04:08:30;15.70;99.90
12180;DHT22;6153;51.490;6.586;2022-09-01T04:11:30;15.70;99.90
12180;DHT22;6153;51.490;6.586;2022-09-01T04:14:31;15.60;99.90
12180;DHT22;6153;51.490;6.586;2022-09-01T04:17:33;15.60;99.90
12180;DHT22;6153;51.490;6.586;2022-09-01T04:20:56;15.60;99.90
12180;DHT22;6153;51.490;6.586;2022-09-01T04:23:57;15.60;99.90
12180;DHT22;6153;51.490;6.586;2022-09-01T04:27:04;15.50;99.90
12180;DHT22;6153;51.490;6.586;2022-09-01T04:30:08;15.50;99.90
12180;DHT22;6153;51.490;6.586;2022-09-01T04:33:10;15.50;99.90
12180;DHT22;6153;51.490;6.586;2022-09-01T04:36:15;15.40;99.90
12180;DHT22;6153;51.490;6.586;2022-09-01T04:39:18;15.50;99.90
12180;DHT22;6153;51.490;6.586;2022-09-01T04:42:19;15.40;99.90
12180;DHT22;6153;51.490;6.586;2022-09-01T04:45:23;15.40;99.90
12180;DHT22;6153;51.490;6.586;2022-09-01T04:48:28;15.40;99.90
12180;DHT22;6153;51.490;6.586;2022-09-01T04:51:31;15.40;99.90
12180;DHT22;6153;51.490;6.586;2022-09-01T04:54:31;15.40;99.90
12180;DHT22;6153;51.490;6.586;2022-09-01T04:57:33;15.40;99.90
12180;DHT22;6153;51.490;6.586;2022-09-01T05:00:34;15.40;99.90
12180;DHT22;6153;51.490;6.586;2022-09-01T05:03:34;15.30;99.90
12180;DHT22;6153;51.490;6.586;2022-09-01T05:06:35;15.30;99.90
12180;DHT22;6153;51.490;6.586;2022-09-01T05:09:38;15.30;99.90
12180;DHT22;6153;51.490;6.586;2022-09-01T05:12:39;15.30;99.90
12180;DHT22;6153;51.490;6.586;2022-09-01T05:15:40;15.30;99.90
12180;DHT22;6153;51.490;6.586;2022-09-01T05:18:47;15.40;99.90
12180;DHT22;6153;51.490;6.586;2022-09-01T05:21:48;15.40;99.90
12180;DHT22;6153;51.490;6.586;2022-09-01T05:24:48;15.40;99.90
12180;DHT22;6153;51.490;6.586;2022-09-01T05:27:50;15.50;99.90
12180;DHT22;6153;51.490;6.586;2022-09-01T05:30:51;15.50;99.90
12180;DHT22;6153;51.490;6.586;2022-09-01T05:33:55;15.50;99.90
12180;DHT22;6153;51.490;6.586;2022-09-01T05:36:57;15.50;99.90
12180;DHT22;6153;51.490;6.586;2022-09-01T05:39:59;15.50;99.90
12180;DHT22;6153;51.490;6.586;2022-09-01T05:43:00;15.50;99.90
12180;DHT22;6153;51.490;6.586;2022-09-01T05:46:06;15.50;99.90
12180;DHT22;6153;51.490;6.586;2022-09-01T05:49:07;15.50;99.90
12180;DHT22;6153;51.490;6.586;2022-09-01T05:52:12;15.60;99.90
12180;DHT22;6153;51.490;6.586;2022-09-01T05:55:13;15.80;99.90
12180;DHT22;6153;51.490;6.586;2022-09-01T05:58:14;15.90;99.90
12180;DHT22;6153;51.490;6.586;2022-09-01T06:01:19;16.10;99.90
12180;DHT22;6153;51.490;6.586;2022-09-01T06:04:22;16.20;99.90
12180;DHT22;6153;51.490;6.586;2022-09-01T06:07:24;16.20;99.90
12180;DHT22;6153;51.490;6.586;2022-09-01T06:10:27;16.40;99.90
12180;DHT22;6153;51.490;6.586;2022-09-01T06:13:29;16.50;99.90
12180;DHT22;6153;51.490;6.586;2022-09-01T06:16:30;16.60;99.90
12180;DHT22;6153;51.490;6.586;2022-09-01T06:19:31;16.70;99.90
12180;DHT22;6153;51.490;6.586;2022-09-01T06:22:32;16.80;99.90
12180;DHT22;6153;51.490;6.586;2022-09-01T06:25:36;16.90;99.90
12180;DHT22;6153;51.490;6.586;2022-09-01T06:28:36;17.00;99.90
12180;DHT22;6153;51.490;6.586;2022-09-01T06:31:40;17.00;99.90
12180;DHT22;6153;51.490;6.586;2022-09-01T06:34:42;17.30;99.90
12180;DHT22;6153;51.490;6.586;2022-09-01T06:37:44;17.20;99.90
12180;DHT22;6153;51.490;6.586;2022-09-01T06:40:45;17.40;99.90
12180;DHT22;6153;51.490;6.586;2022-09-01T06:43:47;17.40;99.90
12180;DHT22;6153;51.490;6.586;2022-09-01T06:46:49;17.50;99.90
12180;DHT22;6153;51.490;6.586;2022-09-01T06:49:49;17.50;99.90
12180;DHT22;6153;51.490;6.586;2022-09-01T06:52:50;17.50;99.90
12180;DHT22;6153;51.490;6.586;2022-09-01T06:56:03;17.60;99.90
12180;DHT22;6153;51.490;6.586;2022-09-01T06:59:03;18.00;99.90
12180;DHT22;6153;51.490;6.586;2022-09-01T07:02:05;18.10;99.90
12180;DHT22;6153;51.490;6.586;2022-09-01T07:05:06;18.40;99.90
12180;DHT22;6153;51.490;6.586;2022-09-01T07:08:08;18.60;99.90
12180;DHT22;6153;51.490;6.586;2022-09-01T07:11:17;18.70;99.90
12180;DHT22;6153;51.490;6.586;2022-09-01T07:14:23;18.80;99.90
12180;DHT22;6153;51.490;6.586;2022-09-01T07:17:24;18.90;99.90
12180;DHT22;6153;51.490;6.586;2022-09-01T07:20:27;19.10;99.90
12180;DHT22;6153;51.490;6.586;2022-09-01T07:23:38;19.00;99.90
12180;DHT22;6153;51.490;6.586;2022-09-01T07:26:40;19.10;99.90
12180;DHT22;6153;51.490;6.586;2022-09-01T07:29:40;19.30;99.90
12180;DHT22;6153;51.490;6.586;2022-09-01T07:32:41;19.60;99.90
12180;DHT22;6153;51.490;6.586;2022-09-01T07:35:45;19.70;99.90
12180;DHT22;6153;51.490;6.586;2022-09-01T07:38:46;19.70;99.90
12180;DHT22;6153;51.490;6.586;2022-09-01T07:41:53;19.80;99.90
12180;DHT22;6153;51.490;6.586;2022-09-01T07:44:53;20.00;99.90
12180;DHT22;6153;51.490;6.586;2022-09-01T07:47:55;20.10;99.90
12180;DHT22;6153;51.490;6.586;2022-09-01T07:50:56;20.30;99.90
12180;DHT22;6153;51.490;6.586;2022-09-01T07:53:57;20.30;99.90
12180;DHT22;6153;51.490;6.586;2022-09-01T07:56:58;20.40;99.90
12180;DHT22;6153;51.490;6.586;2022-09-01T07:59:58;20.70;99.90
12180;DHT22;6153;51.490;6.586;2022-09-01T08:02:59;20.90;99.90
12180;DHT22;6153;51.490;6.586;2022-09-01T08:06:06;21.00;99.90
12180;DHT22;6153;51.490;6.586;2022-09-01T08:09:08;21.10;99.90
12180;DHT22;6153;51.490;6.586;2022-09-01T08:12:10;21.30;99.90
12180;DHT22;6153;51.490;6.586;2022-09-01T08:15:11;21.40;99.90
12180;DHT22;6153;51.490;6.586;2022-09-01T08:18:12;21.70;99.30
12180;DHT22;6153;51.490;6.586;2022-09-01T08:21:14;21.50;99.10
12180;DHT22;6153;51.490;6.586;2022-09-01T08:24:15;21.50;98.90
12180;DHT22;6153;51.490;6.586;2022-09-01T08:27:16;21.60;98.90
12180;DHT22;6153;51.490;6.586;2022-09-01T08:30:16;21.60;98.10
12180;DHT22;6153;51.490;6.586;2022-09-01T08:33:17;21.70;98.10
12180;DHT22;6153;51.490;6.586;2022-09-01T08:36:18;21.70;98.10
12180;DHT22;6153;51.490;6.586;2022-09-01T08:39:18;22.00;97.80
12180;DHT22;6153;51.490;6.586;2022-09-01T08:42:26;22.10;98.00
12180;DHT22;6153;51.490;6.586;2022-09-01T08:45:54;22.00;97.20
12180;DHT22;6153;51.490;6.586;2022-09-01T08:48:55;22.00;96.90
12180;DHT22;6153;51.490;6.586;2022-09-01T08:51:57;22.20;96.90
12180;DHT22;6153;51.490;6.586;2022-09-01T08:58:00;22.40;96.20
12180;DHT22;6153;51.490;6.586;2022-09-01T09:01:02;22.60;95.70
12180;DHT22;6153;51.490;6.586;2022-09-01T09:04:11;22.40;95.30
12180;DHT22;6153;51.490;6.586;2022-09-01T09:10:58;22.70;95.00
12180;DHT22;6153;51.490;6.586;2022-09-01T09:14:21;22.60;94.80
12180;DHT22;6153;51.490;6.586;2022-09-01T09:17:28;22.50;94.60
12180;DHT22;6153;51.490;6.586;2022-09-01T09:20:29;22.80;94.70
12180;DHT22;6153;51.490;6.586;2022-09-01T09:23:33;23.00;94.30
12180;DHT22;6153;51.490;6.586;2022-09-01T09:26:35;23.50;94.10
12180;DHT22;6153;51.490;6.586;2022-09-01T09:29:36;23.30;93.20
12180;DHT22;6153;51.490;6.586;2022-09-01T09:32:57;23.30;93.10
12180;DHT22;6153;51.490;6.586;2022-09-01T09:36:18;23.20;93.70
12180;DHT22;6153;51.490;6.586;2022-09-01T09:39:19;23.60;91.90
12180;DHT22;6153;51.490;6.586;2022-09-01T09:42:19;23.70;91.60
12180;DHT22;6153;51.490;6.586;2022-09-01T09:45:27;23.70;90.50
12180;DHT22;6153;51.490;6.586;2022-09-01T09:48:29;23.50;90.50
12180;DHT22;6153;51.490;6.586;2022-09-01T09:51:30;24.10;87.30
12180;DHT22;6153;51.490;6.586;2022-09-01T09:54:32;23.70;89.90
12180;DHT22;6153;51.490;6.586;2022-09-01T09:57:37;23.90;87.60
12180;DHT22;6153;51.490;6.586;2022-09-01T10:00:37;23.80;87.30
12180;DHT22;6153;51.490;6.586;2022-09-01T10:06:42;23.50;87.60
12180;DHT22;6153;51.490;6.586;2022-09-01T10:09:46;24.10;85.10
12180;DHT22;6153;51.490;6.586;2022-09-01T10:12:48;24.00;83.40
12180;DHT22;6153;51.490;6.586;2022-09-01T10:15:52;23.60;85.90
12180;DHT22;6153;51.490;6.586;2022-09-01T10:18:53;24.00;85.30
12180;DHT22;6153;51.490;6.586;2022-09-01T10:21:59;24.10;83.50
12180;DHT22;6153;51.490;6.586;2022-09-01T10:24:59;24.20;83.70
12180;DHT22;6153;51.490;6.586;2022-09-01T10:31:04;24.70;81.40
12180;DHT22;6153;51.490;6.586;2022-09-01T10:34:05;24.70;80.50
12180;DHT22;6153;51.490;6.586;2022-09-01T10:37:07;24.70;80.80
12180;DHT22;6153;51.490;6.586;2022-09-01T10:40:18;24.70;79.60
12180;DHT22;6153;51.490;6.586;2022-09-01T10:55:43;25.30;78.50
12180;DHT22;6153;51.490;6.586;2022-09-01T10:58:52;24.90;75.30
12180;DHT22;6153;51.490;6.586;2022-09-01T11:02:04;24.70;76.30
12180;DHT22;6153;51.490;6.586;2022-09-01T11:14:54;26.50;73.60
12180;DHT22;6153;51.490;6.586;2022-09-01T11:17:55;26.70;74.50
12180;DHT22;6153;51.490;6.586;2022-09-01T11:21:14;26.20;72.80
12180;DHT22;6153;51.490;6.586;2022-09-01T11:30:52;26.70;71.00
12180;DHT22;6153;51.490;6.586;2022-09-01T11:34:08;27.20;69.00
12180;DHT22;6153;51.490;6.586;2022-09-01T11:37:20;26.50;69.60
12180;DHT22;6153;51.490;6.586;2022-09-01T11:40:22;26.20;68.50
12180;DHT22;6153;51.490;6.586;2022-09-01T11:43:23;26.00;71.20
12180;DHT22;6153;51.490;6.586;2022-09-01T11:46:29;26.10;71.50
12180;DHT22;6153;51.490;6.586;2022-09-01T11:49:38;26.20;72.70
12180;DHT22;6153;51.490;6.586;2022-09-01T11:52:58;26.40;69.90
12180;DHT22;6153;51.490;6.586;2022-09-01T11:56:19;26.60;70.10
12180;DHT22;6153;51.490;6.586;2022-09-01T11:59:31;27.00;70.90
12180;DHT22;6153;51.490;6.586;2022-09-01T12:02:32;26.90;70.50
12180;DHT22;6153;51.490;6.586;2022-09-01T12:05:34;26.50;72.50
12180;DHT22;6153;51.490;6.586;2022-09-01T12:08:36;27.00;72.20
12180;DHT22;6153;51.490;6.586;2022-09-01T12:11:37;27.30;72.20
12180;DHT22;6153;51.490;6.586;2022-09-01T12:14:41;26.90;71.90
12180;DHT22;6153;51.490;6.586;2022-09-01T12:17:41;26.30;71.80
12180;DHT22;6153;51.490;6.586;2022-09-01T12:20:42;26.90;71.90
12180;DHT22;6153;51.490;6.586;2022-09-01T12:23:42;27.40;72.40
12180;DHT22;6153;51.490;6.586;2022-09-01T12:26:44;26.70;72.40
12180;DHT22;6153;51.490;6.586;2022-09-01T12:29:46;27.10;72.20
12180;DHT22;6153;51.490;6.586;2022-09-01T12:32:47;26.80;71.80
12180;DHT22;6153;51.490;6.586;2022-09-01T12:35:47;27.50;72.10
12180;DHT22;6153;51.490;6.586;2022-09-01T12:38:48;26.60;71.20
12180;DHT22;6153;51.490;6.586;2022-09-01T12:45:09;26.90;70.90
12180;DHT22;6153;51.490;6.586;2022-09-01T12:48:26;27.00;72.10
12180;DHT22;6153;51.490;6.586;2022-09-01T12:51:28;27.00;72.50
12180;DHT22;6153;51.490;6.586;2022-09-01T12:54:29;26.50;72.40
12180;DHT22;6153;51.490;6.586;2022-09-01T12:57:38;27.90;72.60
12180;DHT22;6153;51.490;6.586;2022-09-01T13:01:04;28.80;72.20
12180;DHT22;6153;51.490;6.586;2022-09-01T13:07:19;26.90;71.90
12180;DHT22;6153;51.490;6.586;2022-09-01T13:10:21;26.70;73.40
12180;DHT22;6153;51.490;6.586;2022-09-01T13:13:23;27.30;72.50
12180;DHT22;6153;51.490;6.586;2022-09-01T13:16:23;26.60;72.20
12180;DHT22;6153;51.490;6.586;2022-09-01T13:19:24;27.00;72.70
12180;DHT22;6153;51.490;6.586;2022-09-01T13:22:24;27.70;71.70
12180;DHT22;6153;51.490;6.586;2022-09-01T13:25:25;27.30;72.90
12180;DHT22;6153;51.490;6.586;2022-09-01T13:28:26;27.50;73.20
12180;DHT22;6153;51.490;6.586;2022-09-01T13:31:26;27.80;71.40
12180;DHT22;6153;51.490;6.586;2022-09-01T13:34:29;27.90;71.20
12180;DHT22;6153;51.490;6.586;2022-09-01T13:37:29;28.40;70.40
12180;DHT22;6153;51.490;6.586;2022-09-01T13:40:30;28.20;69.60
12180;DHT22;6153;51.490;6.586;2022-09-01T13:43:30;27.80;70.50
12180;DHT22;6153;51.490;6.586;2022-09-01T13:46:33;27.20;71.90
12180;DHT22;6153;51.490;6.586;2022-09-01T13:49:33;27.40;71.40
12180;DHT22;6153;51.490;6.586;2022-09-01T13:52:34;27.30;70.70
12180;DHT22;6153;51.490;6.586;2022-09-01T13:55:38;27.40;70.90
12180;DHT22;6153;51.490;6.586;2022-09-01T13:58:38;28.00;70.60
12180;DHT22;6153;51.490;6.586;2022-09-01T14:01:40;28.30;69.30
12180;DHT22;6153;51.490;6.586;2022-09-01T14:04:42;27.70;69.90
12180;DHT22;6153;51.490;6.586;2022-09-01T14:07:42;26.90;70.60
12180;DHT22;6153;51.490;6.586;2022-09-01T14:10:44;26.80;71.60
12180;DHT22;6153;51.490;6.586;2022-09-01T14:13:45;26.80;71.70
12180;DHT22;6153;51.490;6.586;2022-09-01T14:16:46;26.70;71.70
12180;DHT22;6153;51.490;6.586;2022-09-01T14:19:50;26.50;72.00
12180;DHT22;6153;51.490;6.586;2022-09-01T14:22:50;26.10;72.60
12180;DHT22;6153;51.490;6.586;2022-09-01T14:25:51;25.60;73.10
12180;DHT22;6153;51.490;6.586;2022-09-01T14:28:51;25.70;73.40
12180;DHT22;6153;51.490;6.586;2022-09-01T14:31:52;25.90;72.40
12180;DHT22;6153;51.490;6.586;2022-09-01T14:34:55;26.10;72.10
12180;DHT22;6153;51.490;6.586;2022-09-01T14:37:58;26.60;72.50
12180;DHT22;6153;51.490;6.586;2022-09-01T14:40:58;26.90;71.80
12180;DHT22;6153;51.490;6.586;2022-09-01T14:43:59;27.30;71.60
12180;DHT22;6153;51.490;6.586;2022-09-01T14:47:01;27.70;70.90
12180;DHT22;6153;51.490;6.586;2022-09-01T14:50:02;27.30;70.20
12180;DHT22;6153;51.490;6.586;2022-09-01T14:53:02;27.10;71.20
12180;DHT22;6153;51.490;6.586;2022-09-01T14:56:03;27.40;70.20
12180;DHT22;6153;51.490;6.586;2022-09-01T14:59:04;26.70;70.40
12180;DHT22;6153;51.490;6.586;2022-09-01T15:02:05;26.30;71.20
12180;DHT22;6153;51.490;6.586;2022-09-01T15:05:07;26.10;71.50
12180;DHT22;6153;51.490;6.586;2022-09-01T15:08:08;26.10;71.40
12180;DHT22;6153;51.490;6.586;2022-09-01T15:11:09;26.10;71.50
12180;DHT22;6153;51.490;6.586;2022-09-01T15:14:10;26.20;71.60
12180;DHT22;6153;51.490;6.586;2022-09-01T15:17:11;26.10;71.90
12180;DHT22;6153;51.490;6.586;2022-09-01T15:20:11;26.40;71.10
12180;DHT22;6153;51.490;6.586;2022-09-01T15:23:30;26.70;71.00
12180;DHT22;6153;51.490;6.586;2022-09-01T15:26:32;26.50;70.30
12180;DHT22;6153;51.490;6.586;2022-09-01T15:29:32;26.60;70.70
12180;DHT22;6153;51.490;6.586;2022-09-01T15:32:33;26.40;70.30
12180;DHT22;6153;51.490;6.586;2022-09-01T15:35:33;26.10;71.50
12180;DHT22;6153;51.490;6.586;2022-09-01T15:38:34;25.90;70.70
12180;DHT22;6153;51.490;6.586;2022-09-01T15:41:35;26.10;71.00
12180;DHT22;6153;51.490;6.586;2022-09-01T15:44:35;26.30;70.30
12180;DHT22;6153;51.490;6.586;2022-09-01T15:47:36;26.10;69.60
12180;DHT22;6153;51.490;6.586;2022-09-01T15:50:37;26.10;70.20
12180;DHT22;6153;51.490;6.586;2022-09-01T15:53:38;25.90;70.60
12180;DHT22;6153;51.490;6.586;2022-09-01T15:56:38;25.80;70.70
12180;DHT22;6153;51.490;6.586;2022-09-01T15:59:39;25.90;70.60
12180;DHT22;6153;51.490;6.586;2022-09-01T16:02:42;25.80;70.20
12180;DHT22;6153;51.490;6.586;2022-09-01T16:05:42;25.60;70.10
12180;DHT22;6153;51.490;6.586;2022-09-01T16:08:43;25.40;70.30
12180;DHT22;6153;51.490;6.586;2022-09-01T16:11:43;25.40;70.90
12180;DHT22;6153;51.490;6.586;2022-09-01T16:14:44;25.50;70.40
12180;DHT22;6153;51.490;6.586;2022-09-01T16:24:22;25.60;70.00
12180;DHT22;6153;51.490;6.586;2022-09-01T16:27:40;25.40;69.80
12180;DHT22;6153;51.490;6.586;2022-09-01T16:30:41;25.30;70.00
12180;DHT22;6153;51.490;6.586;2022-09-01T16:33:45;25.30;70.00
12180;DHT22;6153;51.490;6.586;2022-09-01T16:39:49;25.30;70.00
12180;DHT22;6153;51.490;6.586;2022-09-01T16:42:52;25.30;70.30
12180;DHT22;6153;51.490;6.586;2022-09-01T16:46:06;25.30;70.10
12180;DHT22;6153;51.490;6.586;2022-09-01T16:52:28;25.30;69.70
12180;DHT22;6153;51.490;6.586;2022-09-01T16:55:36;25.30;69.80
12180;DHT22;6153;51.490;6.586;2022-09-01T17:05:02;24.90;69.70
12180;DHT22;6153;51.490;6.586;2022-09-01T17:08:11;24.70;70.10
12180;DHT22;6153;51.490;6.586;2022-09-01T17:11:24;24.70;70.40
12180;DHT22;6153;51.490;6.586;2022-09-01T17:14:30;24.70;70.40
12180;DHT22;6153;51.490;6.586;2022-09-01T17:20:53;24.40;70.30
12180;DHT22;6153;51.490;6.586;2022-09-01T17:27:00;24.10;70.80
12180;DHT22;6153;51.490;6.586;2022-09-01T17:30:07;24.10;70.90
12180;DHT22;6153;51.490;6.586;2022-09-01T17:33:34;24.10;70.80
12180;DHT22;6153;51.490;6.586;2022-09-01T17:36:48;24.00;71.10
12180;DHT22;6153;51.490;6.586;2022-09-01T17:43:13;23.90;71.50
12180;DHT22;6153;51.490;6.586;2022-09-01T17:46:45;23.70;71.60
12180;DHT22;6153;51.490;6.586;2022-09-01T17:50:05;23.80;71.30
12180;DHT22;6153;51.490;6.586;2022-09-01T18:03:22;23.40;72.00
12180;DHT22;6153;51.490;6.586;2022-09-01T18:06:27;23.30;72.50
12180;DHT22;6153;51.490;6.586;2022-09-01T18:09:36;23.20;72.30
12180;DHT22;6153;51.490;6.586;2022-09-01T18:12:53;23.10;72.80
12180;DHT22;6153;51.490;6.586;2022-09-01T18:15:54;23.00;73.30
12180;DHT22;6153;51.490;6.586;2022-09-01T18:19:02;22.80;73.50
12180;DHT22;6153;51.490;6.586;2022-09-01T18:22:23;22.70;73.60
12180;DHT22;6153;51.490;6.586;2022-09-01T18:25:48;22.60;73.80
12180;DHT22;6153;51.490;6.586;2022-09-01T18:28:52;22.50;73.70
12180;DHT22;6153;51.490;6.586;2022-09-01T18:32:02;22.40;73.90
12180;DHT22;6153;51.490;6.586;2022-09-01T18:38:37;22.30;74.00
12180;DHT22;6153;51.490;6.586;2022-09-01T18:45:24;22.20;74.30
12180;DHT22;6153;51.490;6.586;2022-09-01T18:48:49;22.20;74.80
12180;DHT22;6153;51.490;6.586;2022-09-01T18:52:13;22.20;75.10
12180;DHT22;6153;51.490;6.586;2022-09-01T19:12:26;21.60;78.00
12180;DHT22;6153;51.490;6.586;2022-09-01T19:15:41;21.50;78.60
12180;DHT22;6153;51.490;6.586;2022-09-01T19:22:02;21.40;79.50
12180;DHT22;6153;51.490;6.586;2022-09-01T19:25:07;21.40;80.00
12180;DHT22;6153;51.490;6.586;2022-09-01T19:28:59;21.30;80.40
12180;DHT22;6153;51.490;6.586;2022-09-01T19:32:06;21.10;80.90
12180;DHT22;6153;51.490;6.586;2022-09-01T19:35:14;21.00;81.40
12180;DHT22;6153;51.490;6.586;2022-09-01T19:38:19;20.90;81.60
12180;DHT22;6153;51.490;6.586;2022-09-01T19:41:25;20.90;82.30
12180;DHT22;6153;51.490;6.586;2022-09-01T19:44:36;20.90;82.60
12180;DHT22;6153;51.490;6.586;2022-09-01T19:47:50;20.80;82.60
12180;DHT22;6153;51.490;6.586;2022-09-01T19:50:56;20.70;83.40
12180;DHT22;6153;51.490;6.586;2022-09-01T19:54:16;20.60;84.00
12180;DHT22;6153;51.490;6.586;2022-09-01T19:57:37;20.60;84.20
12180;DHT22;6153;51.490;6.586;2022-09-01T20:00:45;20.50;84.80
12180;DHT22;6153;51.490;6.586;2022-09-01T20:03:56;20.40;85.30
12180;DHT22;6153;51.490;6.586;2022-09-01T20:07:00;20.40;85.60
12180;DHT22;6153;51.490;6.586;2022-09-01T20:17:07;20.30;86.50
12180;DHT22;6153;51.490;6.586;2022-09-01T20:20:15;20.20;86.30
12180;DHT22;6153;51.490;6.586;2022-09-01T20:23:33;20.30;86.30
12180;DHT22;6153;51.490;6.586;2022-09-01T20:26:55;20.20;86.40
12180;DHT22;6153;51.490;6.586;2022-09-01T20:30:06;20.20;86.60
12180;DHT22;6153;51.490;6.586;2022-09-01T20:33:15;20.20;86.80
12180;DHT22;6153;51.490;6.586;2022-09-01T20:36:25;20.10;86.90
12180;DHT22;6153;51.490;6.586;2022-09-01T20:43:17;20.10;87.30
12180;DHT22;6153;51.490;6.586;2022-09-01T20:46:22;20.00;87.70
12180;DHT22;6153;51.490;6.586;2022-09-01T20:49:24;20.00;87.60
12180;DHT22;6153;51.490;6.586;2022-09-01T20:52:30;20.00;87.70
12180;DHT22;6153;51.490;6.586;2022-09-01T20:59:09;19.90;88.20
12180;DHT22;6153;51.490;6.586;2022-09-01T21:05:53;19.90;88.60
12180;DHT22;6153;51.490;6.586;2022-09-01T21:09:04;19.80;88.70
12180;DHT22;6153;51.490;6.586;2022-09-01T21:15:50;19.80;89.00
12180;DHT22;6153;51.490;6.586;2022-09-01T21:19:03;19.80;89.00
12180;DHT22;6153;51.490;6.586;2022-09-01T21:22:08;19.70;89.10
12180;DHT22;6153;51.490;6.586;2022-09-01T21:25:10;19.70;89.40
12180;DHT22;6153;51.490;6.586;2022-09-01T21:28:12;19.60;89.70
12180;DHT22;6153;51.490;6.586;2022-09-01T21:31:18;19.50;90.10
12180;DHT22;6153;51.490;6.586;2022-09-01T21:34:19;19.40;90.20
12180;DHT22;6153;51.490;6.586;2022-09-01T21:37:19;19.40;90.50
12180;DHT22;6153;51.490;6.586;2022-09-01T21:40:23;19.40;90.50
12180;DHT22;6153;51.490;6.586;2022-09-01T21:43:27;19.30;90.60
12180;DHT22;6153;51.490;6.586;2022-09-01T21:46:28;19.40;90.70
12180;DHT22;6153;51.490;6.586;2022-09-01T21:49:29;19.30;90.90
12180;DHT22;6153;51.490;6.586;2022-09-01T21:52:29;19.20;90.90
12180;DHT22;6153;51.490;6.586;2022-09-01T21:55:30;19.20;91.10
12180;DHT22;6153;51.490;6.586;2022-09-01T21:58:31;19.10;91.30